sensor_id;sensor_type;location;lat;lon;timestamp;temperature;humidity
9167;DHT22;4618;48.818;9.088;2023-04-22T00:01:44;11.30;1.00
9167;DHT22;4618;48.818;9.088;2023-04-22T00:04:10;11.30;1.00
9167;DHT22;4618;48.818;9.088;2023-04-22T00:06:35;11.30;8.10
9167;DHT22;4618;48.818;9.088;2023-04-22T00:09:01;11.30;1.00
9167;DHT22;4618;48.818;9.088;2023-04-22T00:11:26;11.20;99.90
9167;DHT22;4618;48.818;9.088;2023-04-22T00:13:52;11.10;1.00
9167;DHT22;4618;48.818;9.088;2023-04-22T00:16:17;11.00;99.90
9167;DHT22;4618;48.818;9.088;2023-04-22T00:18:43;11.10;58.50
9167;DHT22;4618;48.818;9.088;2023-04-22T00:21:09;10.90;99.90
9167;DHT22;4618;48.818;9.088;2023-04-22T00:23:34;10.80;1.00
9167;DHT22;4618;48.818;9.088;2023-04-22T00:26:00;10.80;11.80
9167;DHT22;4618;48.818;9.088;2023-04-22T00:28:25;10.80;40.80
9167;DHT22;4618;48.818;9.088;2023-04-22T00:30:51;10.80;99.90
9167;DHT22;4618;48.818;9.088;2023-04-22T00:33:16;10.70;99.90
9167;DHT22;4618;48.818;9.088;2023-04-22T00:35:42;10.60;1.00
9167;DHT22;4618;48.818;9.088;2023-04-22T00:38:08;10.60;99.90
9167;DHT22;4618;48.818;9.088;2023-04-22T00:40:33;10.60;99.90
9167;DHT22;4618;48.818;9.088;2023-04-22T00:42:59;10.50;99.90
9167;DHT22;4618;48.818;9.088;2023-04-22T00:45:25;10.60;34.80
9167;DHT22;4618;48.818;9.088;2023-04-22T00:47:51;10.60;1.00
9167;DHT22;4618;48.818;9.088;2023-04-22T00:50:16;10.40;99.90
9167;DHT22;4618;48.818;9.088;2023-04-22T00:52:42;10.40;99.90
9167;DHT22;4618;48.818;9.088;2023-04-22T00:55:07;10.40;99.90
9167;DHT22;4618;48.818;9.088;2023-04-22T00:57:33;10.40;1.00
9167;DHT22;4618;48.818;9.088;2023-04-22T00:59:59;10.40;1.00
9167;DHT22;4618;48.818;9.088;2023-04-22T01:02:25;10.40;1.00
9167;DHT22;4618;48.818;9.088;2023-04-22T01:04:51;10.40;1.00
9167;DHT22;4618;48.818;9.088;2023-04-22T01:07:18;10.50;1.00
9167;DHT22;4618;48.818;9.088;2023-04-22T01:09:43;10.40;1.00
9167;DHT22;4618;48.818;9.088;2023-04-22T01:12:10;10.40;1.00
9167;DHT22;4618;48.818;9.088;2023-04-22T01:14:35;10.40;1.00
9167;DHT22;4618;48.818;9.088;2023-04-22T01:17:01;10.30;1.00
9167;DHT22;4618;48.818;9.088;2023-04-22T01:19:27;10.30;1.00
9167;DHT22;4618;48.818;9.088;2023-04-22T01:21:53;10.30;97.60
9167;DHT22;4618;48.818;9.088;2023-04-22T01:24:20;10.20;99.90
9167;DHT22;4618;48.818;9.088;2023-04-22T01:26:46;10.20;99.90
9167;DHT22;4618;48.818;9.088;2023-04-22T01:29:11;10.00;1.00
9167;DHT22;4618;48.818;9.088;2023-04-22T01:31:38;10.00;1.00
9167;DHT22;4618;48.818;9.088;2023-04-22T01:34:03;10.00;1.00
9167;DHT22;4618;48.818;9.088;2023-04-22T01:36:29;10.00;1.00
9167;DHT22;4618;48.818;9.088;2023-04-22T01:38:57;10.00;1.00
9167;DHT22;4618;48.818;9.088;2023-04-22T01:41:22;10.10;1.00
9167;DHT22;4618;48.818;9.088;2023-04-22T01:43:48;10.10;1.00
9167;DHT22;4618;48.818;9.088;2023-04-22T01:46:15;10.00;51.80
9167;DHT22;4618;48.818;9.088;2023-04-22T01:48:41;10.10;1.00
9167;DHT22;4618;48.818;9.088;2023-04-22T01:51:06;10.20;1.00
9167;DHT22;4618;48.818;9.088;2023-04-22T01:53:31;10.20;99.90
9167;DHT22;4618;48.818;9.088;2023-04-22T01:55:58;10.20;1.00
9167;DHT22;4618;48.818;9.088;2023-04-22T01:58:23;10.20;1.00
9167;DHT22;4618;48.818;9.088;2023-04-22T02:00:49;10.10;99.90
9167;DHT22;4618;48.818;9.088;2023-04-22T02:03:14;10.10;99.90
9167;DHT22;4618;48.818;9.088;2023-04-22T02:05:40;10.10;1.00
9167;DHT22;4618;48.818;9.088;2023-04-22T02:08:05;10.20;1.00
9167;DHT22;4618;48.818;9.088;2023-04-22T02:10:31;10.30;1.00
9167;DHT22;4618;48.818;9.088;2023-04-22T02:12:56;10.30;1.00
9167;DHT22;4618;48.818;9.088;2023-04-22T02:15:22;10.10;1.00
9167;DHT22;4618;48.818;9.088;2023-04-22T02:17:47;10.20;1.00
9167;DHT22;4618;48.818;9.088;2023-04-22T02:20:13;10.10;1.00
9167;DHT22;4618;48.818;9.088;2023-04-22T02:22:39;10.30;1.00
9167;DHT22;4618;48.818;9.088;2023-04-22T02:25:05;10.40;1.00
9167;DHT22;4618;48.818;9.088;2023-04-22T02:27:31;10.40;1.00
9167;DHT22;4618;48.818;9.088;2023-04-22T02:29:57;10.40;1.00
9167;DHT22;4618;48.818;9.088;2023-04-22T02:32:22;10.30;1.00
9167;DHT22;4618;48.818;9.088;2023-04-22T02:34:47;10.30;99.90
9167;DHT22;4618;48.818;9.088;2023-04-22T02:37:13;10.30;99.90
9167;DHT22;4618;48.818;9.088;2023-04-22T02:39:38;10.10;99.90
9167;DHT22;4618;48.818;9.088;2023-04-22T02:42:04;10.10;99.90
9167;DHT22;4618;48.818;9.088;2023-04-22T02:44:29;9.90;1.00
9167;DHT22;4618;48.818;9.088;2023-04-22T02:46:55;9.80;99.90
9167;DHT22;4618;48.818;9.088;2023-04-22T02:49:20;9.70;1.00
9167;DHT22;4618;48.818;9.088;2023-04-22T02:51:46;9.60;1.00
9167;DHT22;4618;48.818;9.088;2023-04-22T02:54:11;9.50;1.00
9167;DHT22;4618;48.818;9.088;2023-04-22T02:56:37;9.50;1.00
9167;DHT22;4618;48.818;9.088;2023-04-22T02:59:02;9.40;8.80
9167;DHT22;4618;48.818;9.088;2023-04-22T03:01:28;9.40;1.00
9167;DHT22;4618;48.818;9.088;2023-04-22T03:03:54;9.30;99.90
9167;DHT22;4618;48.818;9.088;2023-04-22T03:06:20;9.10;1.00
9167;DHT22;4618;48.818;9.088;2023-04-22T03:08:45;9.00;99.90
9167;DHT22;4618;48.818;9.088;2023-04-22T03:11:11;8.90;99.90
9167;DHT22;4618;48.818;9.088;2023-04-22T03:13:38;8.90;99.90
9167;DHT22;4618;48.818;9.088;2023-04-22T03:16:03;8.80;99.90
9167;DHT22;4618;48.818;9.088;2023-04-22T03:18:29;8.80;1.00
9167;DHT22;4618;48.818;9.088;2023-04-22T03:20:55;8.80;1.00
9167;DHT22;4618;48.818;9.088;2023-04-22T03:23:20;8.70;1.00
9167;DHT22;4618;48.818;9.088;2023-04-22T03:25:46;8.70;1.00
9167;DHT22;4618;48.818;9.088;2023-04-22T03:28:11;8.70;1.00
9167;DHT22;4618;48.818;9.088;2023-04-22T03:30:37;9.00;99.90
9167;DHT22;4618;48.818;9.088;2023-04-22T03:33:02;9.00;99.90
9167;DHT22;4618;48.818;9.088;2023-04-22T03:35:28;9.00;99.90
9167;DHT22;4618;48.818;9.088;2023-04-22T03:37:53;9.00;1.00
9167;DHT22;4618;48.818;9.088;2023-04-22T03:40:19;9.00;1.00
9167;DHT22;4618;48.818;9.088;2023-04-22T03:42:44;9.10;90.30
9167;DHT22;4618;48.818;9.088;2023-04-22T03:45:10;9.20;1.00
9167;DHT22;4618;48.818;9.088;2023-04-22T03:47:35;9.20;99.90
9167;DHT22;4618;48.818;9.088;2023-04-22T03:50:01;9.20;99.90
9167;DHT22;4618;48.818;9.088;2023-04-22T03:52:26;9.30;99.90
9167;DHT22;4618;48.818;9.088;2023-04-22T03:54:51;9.30;99.90
9167;DHT22;4618;48.818;9.088;2023-04-22T03:57:17;9.40;99.90
9167;DHT22;4618;48.818;9.088;2023-04-22T03:59:42;9.30;99.90
9167;DHT22;4618;48.818;9.088;2023-04-22T04:02:08;9.20;99.90
9167;DHT22;4618;48.818;9.088;2023-04-22T04:04:33;9.20;1.00
9167;DHT22;4618;48.818;9.088;2023-04-22T04:06:59;9.30;99.90
9167;DHT22;4618;48.818;9.088;2023-04-22T04:09:25;9.50;2.70
9167;DHT22;4618;48.818;9.088;2023-04-22T04:11:50;9.50;1.00
9167;DHT22;4618;48.818;9.088;2023-04-22T04:14:16;9.60;99.90
9167;DHT22;4618;48.818;9.088;2023-04-22T04:16:41;9.60;99.90
9167;DHT22;4618;48.818;9.088;2023-04-22T04:19:07;9.60;99.90
9167;DHT22;4618;48.818;9.088;2023-04-22T04:21:32;9.60;99.90
9167;DHT22;4618;48.818;9.088;2023-04-22T04:23:58;9.50;99.90
9167;DHT22;4618;48.818;9.088;2023-04-22T04:26:24;9.30;99.90
9167;DHT22;4618;48.818;9.088;2023-04-22T04:28:51;9.30;1.00
9167;DHT22;4618;48.818;9.088;2023-04-22T04:31:17;9.20;1.00
9167;DHT22;4618;48.818;9.088;2023-04-22T04:33:43;9.30;1.00
9167;DHT22;4618;48.818;9.088;2023-04-22T04:36:08;9.40;99.90
9167;DHT22;4618;48.818;9.088;2023-04-22T04:38:34;9.70;1.00
9167;DHT22;4618;48.818;9.088;2023-04-22T04:41:00;10.00;57.80
9167;DHT22;4618;48.818;9.088;2023-04-22T04:43:26;10.10;1.00
9167;DHT22;4618;48.818;9.088;2023-04-22T04:45:53;10.00;1.00
9167;DHT22;4618;48.818;9.088;2023-04-22T04:48:19;10.00;1.00
9167;DHT22;4618;48.818;9.088;2023-04-22T04:50:44;9.90;1.00
9167;DHT22;4618;48.818;9.088;2023-04-22T04:53:10;9.70;99.90
9167;DHT22;4618;48.818;9.088;2023-04-22T04:55:36;9.50;1.00
9167;DHT22;4618;48.818;9.088;2023-04-22T04:58:02;9.50;1.00
9167;DHT22;4618;48.818;9.088;2023-04-22T05:00:28;9.50;1.00
9167;DHT22;4618;48.818;9.088;2023-04-22T05:02:53;9.60;1.00
9167;DHT22;4618;48.818;9.088;2023-04-22T05:05:19;9.80;99.90
9167;DHT22;4618;48.818;9.088;2023-04-22T05:07:44;10.00;1.00
9167;DHT22;4618;48.818;9.088;2023-04-22T05:10:10;10.20;99.90
9167;DHT22;4618;48.818;9.088;2023-04-22T05:12:36;10.30;99.90
9167;DHT22;4618;48.818;9.088;2023-04-22T05:15:01;10.40;1.00
9167;DHT22;4618;48.818;9.088;2023-04-22T05:17:27;10.60;1.00
9167;DHT22;4618;48.818;9.088;2023-04-22T05:19:52;10.40;1.00
9167;DHT22;4618;48.818;9.088;2023-04-22T05:22:18;10.40;1.00
9167;DHT22;4618;48.818;9.088;2023-04-22T05:24:43;10.20;99.90
9167;DHT22;4618;48.818;9.088;2023-04-22T05:27:09;10.20;99.90
9167;DHT22;4618;48.818;9.088;2023-04-22T05:29:34;10.20;99.90
9167;DHT22;4618;48.818;9.088;2023-04-22T05:32:00;10.10;99.90
9167;DHT22;4618;48.818;9.088;2023-04-22T05:34:25;10.00;1.00
9167;DHT22;4618;48.818;9.088;2023-04-22T05:36:51;10.00;1.00
9167;DHT22;4618;48.818;9.088;2023-04-22T05:39:16;10.00;34.30
9167;DHT22;4618;48.818;9.088;2023-04-22T05:41:42;10.00;26.00
9167;DHT22;4618;48.818;9.088;2023-04-22T05:44:07;10.10;1.00
9167;DHT22;4618;48.818;9.088;2023-04-22T05:46:33;10.10;10.30
9167;DHT22;4618;48.818;9.088;2023-04-22T05:48:58;10.20;1.00
9167;DHT22;4618;48.818;9.088;2023-04-22T05:51:24;10.30;1.00
9167;DHT22;4618;48.818;9.088;2023-04-22T05:53:49;10.50;99.90
9167;DHT22;4618;48.818;9.088;2023-04-22T05:56:15;10.60;99.90
9167;DHT22;4618;48.818;9.088;2023-04-22T05:58:40;10.80;99.90
9167;DHT22;4618;48.818;9.088;2023-04-22T06:01:06;11.00;17.20
9167;DHT22;4618;48.818;9.088;2023-04-22T06:03:31;11.00;1.00
9167;DHT22;4618;48.818;9.088;2023-04-22T06:05:57;11.20;99.90
9167;DHT22;4618;48.818;9.088;2023-04-22T06:08:22;11.30;1.00
9167;DHT22;4618;48.818;9.088;2023-04-22T06:10:48;11.40;1.00
9167;DHT22;4618;48.818;9.088;2023-04-22T06:13:14;11.60;1.00
9167;DHT22;4618;48.818;9.088;2023-04-22T06:15:39;11.80;1.00
9167;DHT22;4618;48.818;9.088;2023-04-22T06:18:05;11.90;1.00
9167;DHT22;4618;48.818;9.088;2023-04-22T06:20:30;12.10;1.00
9167;DHT22;4618;48.818;9.088;2023-04-22T06:23:00;12.30;1.00
9167;DHT22;4618;48.818;9.088;2023-04-22T06:25:25;12.60;99.90
9167;DHT22;4618;48.818;9.088;2023-04-22T06:27:51;13.00;1.00
9167;DHT22;4618;48.818;9.088;2023-04-22T06:30:16;13.10;1.00
9167;DHT22;4618;48.818;9.088;2023-04-22T06:32:42;13.30;1.00
9167;DHT22;4618;48.818;9.088;2023-04-22T06:35:07;13.50;1.00
9167;DHT22;4618;48.818;9.088;2023-04-22T06:37:33;13.70;99.90
9167;DHT22;4618;48.818;9.088;2023-04-22T06:39:58;13.80;99.90
9167;DHT22;4618;48.818;9.088;2023-04-22T06:42:24;13.80;99.90
9167;DHT22;4618;48.818;9.088;2023-04-22T06:44:49;13.90;99.90
9167;DHT22;4618;48.818;9.088;2023-04-22T06:47:15;13.90;99.90
9167;DHT22;4618;48.818;9.088;2023-04-22T06:49:40;14.10;1.00
9167;DHT22;4618;48.818;9.088;2023-04-22T06:52:07;14.10;1.00
9167;DHT22;4618;48.818;9.088;2023-04-22T06:54:32;14.00;1.00
9167;DHT22;4618;48.818;9.088;2023-04-22T06:56:58;13.90;1.00
9167;DHT22;4618;48.818;9.088;2023-04-22T06:59:23;13.90;1.00
9167;DHT22;4618;48.818;9.088;2023-04-22T07:01:49;14.30;1.00
9167;DHT22;4618;48.818;9.088;2023-04-22T07:04:14;14.40;1.00
9167;DHT22;4618;48.818;9.088;2023-04-22T07:06:41;14.30;1.00
9167;DHT22;4618;48.818;9.088;2023-04-22T07:09:06;14.50;1.00
9167;DHT22;4618;48.818;9.088;2023-04-22T07:11:32;14.60;99.90
9167;DHT22;4618;48.818;9.088;2023-04-22T07:13:58;14.70;99.90
9167;DHT22;4618;48.818;9.088;2023-04-22T07:16:25;14.80;99.90
9167;DHT22;4618;48.818;9.088;2023-04-22T07:18:50;15.00;99.90
9167;DHT22;4618;48.818;9.088;2023-04-22T07:21:16;15.10;99.90
9167;DHT22;4618;48.818;9.088;2023-04-22T07:23:41;15.10;99.90
9167;DHT22;4618;48.818;9.088;2023-04-22T07:26:07;15.20;99.90
9167;DHT22;4618;48.818;9.088;2023-04-22T07:28:32;15.50;99.90
9167;DHT22;4618;48.818;9.088;2023-04-22T07:30:58;15.80;99.90
9167;DHT22;4618;48.818;9.088;2023-04-22T07:33:25;16.10;99.90
9167;DHT22;4618;48.818;9.088;2023-04-22T07:35:50;16.40;13.00
9167;DHT22;4618;48.818;9.088;2023-04-22T07:38:16;16.80;1.00
9167;DHT22;4618;48.818;9.088;2023-04-22T07:40:41;17.20;1.00
9167;DHT22;4618;48.818;9.088;2023-04-22T07:43:08;17.40;1.00
9167;DHT22;4618;48.818;9.088;2023-04-22T07:45:33;17.30;1.00
9167;DHT22;4618;48.818;9.088;2023-04-22T07:47:59;17.60;1.00
9167;DHT22;4618;48.818;9.088;2023-04-22T07:50:24;17.70;1.00
9167;DHT22;4618;48.818;9.088;2023-04-22T07:52:50;17.70;1.00
9167;DHT22;4618;48.818;9.088;2023-04-22T07:55:16;18.00;1.00
9167;DHT22;4618;48.818;9.088;2023-04-22T07:57:41;17.90;1.00
9167;DHT22;4618;48.818;9.088;2023-04-22T08:00:08;18.40;1.00
9167;DHT22;4618;48.818;9.088;2023-04-22T08:02:34;18.00;1.00
9167;DHT22;4618;48.818;9.088;2023-04-22T08:05:00;18.20;1.00
9167;DHT22;4618;48.818;9.088;2023-04-22T08:07:26;18.90;1.00
9167;DHT22;4618;48.818;9.088;2023-04-22T08:09:52;19.20;1.00
9167;DHT22;4618;48.818;9.088;2023-04-22T08:12:18;19.30;1.00
9167;DHT22;4618;48.818;9.088;2023-04-22T08:14:43;19.50;1.00
9167;DHT22;4618;48.818;9.088;2023-04-22T08:17:09;19.20;1.00
9167;DHT22;4618;48.818;9.088;2023-04-22T08:19:34;18.90;1.00
9167;DHT22;4618;48.818;9.088;2023-04-22T08:22:00;18.70;1.00
9167;DHT22;4618;48.818;9.088;2023-04-22T08:24:26;18.10;1.00
9167;DHT22;4618;48.818;9.088;2023-04-22T08:26:51;17.90;1.00
9167;DHT22;4618;48.818;9.088;2023-04-22T08:29:17;18.40;1.00
9167;DHT22;4618;48.818;9.088;2023-04-22T08:31:43;18.90;1.00
9167;DHT22;4618;48.818;9.088;2023-04-22T08:34:08;19.30;1.00
9167;DHT22;4618;48.818;9.088;2023-04-22T08:36:34;19.80;1.00
9167;DHT22;4618;48.818;9.088;2023-04-22T08:38:59;20.60;1.00
9167;DHT22;4618;48.818;9.088;2023-04-22T08:41:25;21.20;1.00
9167;DHT22;4618;48.818;9.088;2023-04-22T08:43:55;21.00;1.00
9167;DHT22;4618;48.818;9.088;2023-04-22T08:46:21;20.70;1.00
9167;DHT22;4618;48.818;9.088;2023-04-22T08:48:49;20.60;1.00
9167;DHT22;4618;48.818;9.088;2023-04-22T08:51:16;21.10;1.00
9167;DHT22;4618;48.818;9.088;2023-04-22T08:53:45;22.30;1.00
9167;DHT22;4618;48.818;9.088;2023-04-22T08:56:13;23.60;1.00
9167;DHT22;4618;48.818;9.088;2023-04-22T08:58:42;24.40;1.00
9167;DHT22;4618;48.818;9.088;2023-04-22T09:01:08;25.10;1.00
9167;DHT22;4618;48.818;9.088;2023-04-22T09:03:34;25.50;1.00
9167;DHT22;4618;48.818;9.088;2023-04-22T09:06:04;25.70;1.00
9167;DHT22;4618;48.818;9.088;2023-04-22T09:08:30;26.20;1.00
9167;DHT22;4618;48.818;9.088;2023-04-22T09:10:56;27.40;99.90
9167;DHT22;4618;48.818;9.088;2023-04-22T09:13:22;27.70;51.30
9167;DHT22;4618;48.818;9.088;2023-04-22T09:15:48;28.60;1.00
9167;DHT22;4618;48.818;9.088;2023-04-22T09:18:15;29.00;1.00
9167;DHT22;4618;48.818;9.088;2023-04-22T09:20:41;29.50;1.00
9167;DHT22;4618;48.818;9.088;2023-04-22T09:23:06;28.50;12.50
9167;DHT22;4618;48.818;9.088;2023-04-22T09:25:33;27.80;23.00
9167;DHT22;4618;48.818;9.088;2023-04-22T09:28:01;27.40;36.90
9167;DHT22;4618;48.818;9.088;2023-04-22T09:30:32;27.30;99.90
9167;DHT22;4618;48.818;9.088;2023-04-22T09:33:03;26.40;93.40
9167;DHT22;4618;48.818;9.088;2023-04-22T09:35:39;26.40;53.40
9167;DHT22;4618;48.818;9.088;2023-04-22T09:38:07;27.00;41.50
9167;DHT22;4618;48.818;9.088;2023-04-22T09:40:33;27.50;28.20
9167;DHT22;4618;48.818;9.088;2023-04-22T09:43:03;27.80;27.60
9167;DHT22;4618;48.818;9.088;2023-04-22T09:45:32;27.90;30.00
9167;DHT22;4618;48.818;9.088;2023-04-22T09:47:59;28.40;22.80
9167;DHT22;4618;48.818;9.088;2023-04-22T09:50:25;29.10;14.60
9167;DHT22;4618;48.818;9.088;2023-04-22T09:52:58;29.90;10.20
9167;DHT22;4618;48.818;9.088;2023-04-22T09:55:24;30.20;1.00
9167;DHT22;4618;48.818;9.088;2023-04-22T09:57:51;30.40;1.00
9167;DHT22;4618;48.818;9.088;2023-04-22T10:00:16;30.10;1.00
9167;DHT22;4618;48.818;9.088;2023-04-22T10:02:42;29.10;1.00
9167;DHT22;4618;48.818;9.088;2023-04-22T10:05:08;29.10;1.00
9167;DHT22;4618;48.818;9.088;2023-04-22T10:07:34;29.10;1.00
9167;DHT22;4618;48.818;9.088;2023-04-22T10:10:00;30.10;1.00
9167;DHT22;4618;48.818;9.088;2023-04-22T10:12:26;30.70;1.00
9167;DHT22;4618;48.818;9.088;2023-04-22T10:14:51;30.70;1.00
9167;DHT22;4618;48.818;9.088;2023-04-22T10:17:17;30.20;1.00
9167;DHT22;4618;48.818;9.088;2023-04-22T10:19:44;29.90;1.00
9167;DHT22;4618;48.818;9.088;2023-04-22T10:22:10;29.10;1.00
9167;DHT22;4618;48.818;9.088;2023-04-22T10:24:36;28.50;1.00
9167;DHT22;4618;48.818;9.088;2023-04-22T10:27:04;29.10;1.00
9167;DHT22;4618;48.818;9.088;2023-04-22T10:32:04;31.80;1.00
9167;DHT22;4618;48.818;9.088;2023-04-22T10:34:31;30.50;1.00
9167;DHT22;4618;48.818;9.088;2023-04-22T10:39:25;28.00;1.00
9167;DHT22;4618;48.818;9.088;2023-04-22T10:41:52;28.10;1.00
9167;DHT22;4618;48.818;9.088;2023-04-22T10:44:19;28.60;1.00
9167;DHT22;4618;48.818;9.088;2023-04-22T10:49:17;27.70;1.00
9167;DHT22;4618;48.818;9.088;2023-04-22T10:51:45;27.40;1.00
9167;DHT22;4618;48.818;9.088;2023-04-22T10:57:05;28.30;1.00
9167;DHT22;4618;48.818;9.088;2023-04-22T10:59:32;29.10;1.00
9167;DHT22;4618;48.818;9.088;2023-04-22T11:02:04;28.90;1.00
9167;DHT22;4618;48.818;9.088;2023-04-22T11:04:30;28.30;1.00
9167;DHT22;4618;48.818;9.088;2023-04-22T11:09:41;26.60;1.00
9167;DHT22;4618;48.818;9.088;2023-04-22T11:14:51;26.30;1.00
9167;DHT22;4618;48.818;9.088;2023-04-22T11:17:20;25.80;1.00
9167;DHT22;4618;48.818;9.088;2023-04-22T11:19:46;25.30;1.00
9167;DHT22;4618;48.818;9.088;2023-04-22T11:22:13;25.10;1.00
9167;DHT22;4618;48.818;9.088;2023-04-22T11:24:39;24.90;1.00
9167;DHT22;4618;48.818;9.088;2023-04-22T11:27:04;25.30;1.00
9167;DHT22;4618;48.818;9.088;2023-04-22T11:29:30;25.50;1.00
9167;DHT22;4618;48.818;9.088;2023-04-22T11:31:56;25.70;1.00
9167;DHT22;4618;48.818;9.088;2023-04-22T11:34:21;25.20;1.00
9167;DHT22;4618;48.818;9.088;2023-04-22T11:36:47;24.90;1.00
9167;DHT22;4618;48.818;9.088;2023-04-22T11:39:12;24.10;1.00
9167;DHT22;4618;48.818;9.088;2023-04-22T11:41:41;23.80;1.00
9167;DHT22;4618;48.818;9.088;2023-04-22T11:44:06;23.70;1.00
9167;DHT22;4618;48.818;9.088;2023-04-22T11:46:32;24.90;1.00
9167;DHT22;4618;48.818;9.088;2023-04-22T11:49:10;25.40;1.00
9167;DHT22;4618;48.818;9.088;2023-04-22T11:51:35;25.30;1.00
9167;DHT22;4618;48.818;9.088;2023-04-22T11:54:02;25.70;1.00
9167;DHT22;4618;48.818;9.088;2023-04-22T11:56:27;26.40;1.00
9167;DHT22;4618;48.818;9.088;2023-04-22T11:58:52;27.20;1.00
9167;DHT22;4618;48.818;9.088;2023-04-22T12:01:18;27.30;1.00
9167;DHT22;4618;48.818;9.088;2023-04-22T12:03:43;27.00;1.00
9167;DHT22;4618;48.818;9.088;2023-04-22T12:06:09;27.30;1.00
9167;DHT22;4618;48.818;9.088;2023-04-22T12:08:38;28.10;1.00
9167;DHT22;4618;48.818;9.088;2023-04-22T12:11:07;27.90;1.00
9167;DHT22;4618;48.818;9.088;2023-04-22T12:16:08;24.60;1.00
9167;DHT22;4618;48.818;9.088;2023-04-22T12:18:37;24.50;1.00
9167;DHT22;4618;48.818;9.088;2023-04-22T12:23:28;26.20;1.00
9167;DHT22;4618;48.818;9.088;2023-04-22T12:25:54;27.70;1.00
9167;DHT22;4618;48.818;9.088;2023-04-22T12:28:20;28.60;1.00
9167;DHT22;4618;48.818;9.088;2023-04-22T12:30:45;28.20;1.00
9167;DHT22;4618;48.818;9.088;2023-04-22T12:33:11;26.30;1.00
9167;DHT22;4618;48.818;9.088;2023-04-22T12:35:36;24.70;1.00
9167;DHT22;4618;48.818;9.088;2023-04-22T12:38:02;24.10;1.00
9167;DHT22;4618;48.818;9.088;2023-04-22T12:40:27;24.20;1.00
9167;DHT22;4618;48.818;9.088;2023-04-22T12:42:53;24.30;1.00
9167;DHT22;4618;48.818;9.088;2023-04-22T12:45:19;23.80;1.00
9167;DHT22;4618;48.818;9.088;2023-04-22T12:47:48;23.70;1.00
9167;DHT22;4618;48.818;9.088;2023-04-22T12:50:14;23.60;1.00
9167;DHT22;4618;48.818;9.088;2023-04-22T12:52:40;23.70;1.00
9167;DHT22;4618;48.818;9.088;2023-04-22T12:55:05;23.60;1.00
9167;DHT22;4618;48.818;9.088;2023-04-22T12:57:31;23.40;1.00
9167;DHT22;4618;48.818;9.088;2023-04-22T12:59:57;23.20;1.00
9167;DHT22;4618;48.818;9.088;2023-04-22T13:02:22;23.00;1.00
9167;DHT22;4618;48.818;9.088;2023-04-22T13:04:48;22.70;1.00
9167;DHT22;4618;48.818;9.088;2023-04-22T13:07:14;22.50;1.00
9167;DHT22;4618;48.818;9.088;2023-04-22T13:09:41;22.70;1.00
9167;DHT22;4618;48.818;9.088;2023-04-22T13:12:07;22.70;1.00
9167;DHT22;4618;48.818;9.088;2023-04-22T13:14:33;22.80;1.00
9167;DHT22;4618;48.818;9.088;2023-04-22T13:16:58;22.60;1.00
9167;DHT22;4618;48.818;9.088;2023-04-22T13:19:24;22.40;1.00
9167;DHT22;4618;48.818;9.088;2023-04-22T13:21:51;22.40;1.00
9167;DHT22;4618;48.818;9.088;2023-04-22T13:24:17;22.60;1.00
9167;DHT22;4618;48.818;9.088;2023-04-22T13:26:42;22.80;1.00
9167;DHT22;4618;48.818;9.088;2023-04-22T13:29:08;23.10;1.00
9167;DHT22;4618;48.818;9.088;2023-04-22T13:31:40;23.30;1.00
9167;DHT22;4618;48.818;9.088;2023-04-22T13:34:06;23.40;1.00
9167;DHT22;4618;48.818;9.088;2023-04-22T13:36:32;23.40;1.00
9167;DHT22;4618;48.818;9.088;2023-04-22T13:38:58;23.20;1.00
9167;DHT22;4618;48.818;9.088;2023-04-22T13:41:24;22.90;2.10
9167;DHT22;4618;48.818;9.088;2023-04-22T13:43:50;22.60;4.60
9167;DHT22;4618;48.818;9.088;2023-04-22T13:46:19;22.80;3.20
9167;DHT22;4618;48.818;9.088;2023-04-22T13:48:45;22.80;1.80
9167;DHT22;4618;48.818;9.088;2023-04-22T13:51:10;22.80;2.10
9167;DHT22;4618;48.818;9.088;2023-04-22T13:53:36;22.70;3.20
9167;DHT22;4618;48.818;9.088;2023-04-22T13:56:01;22.70;2.30
9167;DHT22;4618;48.818;9.088;2023-04-22T13:58:27;22.70;1.50
9167;DHT22;4618;48.818;9.088;2023-04-22T14:00:53;22.30;12.40
9167;DHT22;4618;48.818;9.088;2023-04-22T14:03:18;22.10;15.70
9167;DHT22;4618;48.818;9.088;2023-04-22T14:05:44;22.00;13.80
9167;DHT22;4618;48.818;9.088;2023-04-22T14:08:10;22.10;12.50
9167;DHT22;4618;48.818;9.088;2023-04-22T14:10:36;22.00;11.60
9167;DHT22;4618;48.818;9.088;2023-04-22T14:13:01;21.80;15.00
9167;DHT22;4618;48.818;9.088;2023-04-22T14:15:27;21.80;15.20
9167;DHT22;4618;48.818;9.088;2023-04-22T14:17:52;21.80;14.80
9167;DHT22;4618;48.818;9.088;2023-04-22T14:20:18;21.80;12.50
9167;DHT22;4618;48.818;9.088;2023-04-22T14:22:44;21.80;12.10
9167;DHT22;4618;48.818;9.088;2023-04-22T14:25:10;21.90;13.20
9167;DHT22;4618;48.818;9.088;2023-04-22T14:27:36;21.70;17.70
9167;DHT22;4618;48.818;9.088;2023-04-22T14:30:02;21.60;20.30
9167;DHT22;4618;48.818;9.088;2023-04-22T14:32:29;21.70;18.50
9167;DHT22;4618;48.818;9.088;2023-04-22T14:34:54;21.80;18.60
9167;DHT22;4618;48.818;9.088;2023-04-22T14:37:20;21.80;19.20
9167;DHT22;4618;48.818;9.088;2023-04-22T14:39:45;21.90;13.50
9167;DHT22;4618;48.818;9.088;2023-04-22T14:42:11;22.10;12.50
9167;DHT22;4618;48.818;9.088;2023-04-22T14:44:37;22.30;21.90
9167;DHT22;4618;48.818;9.088;2023-04-22T14:47:02;22.50;11.30
9167;DHT22;4618;48.818;9.088;2023-04-22T14:49:28;22.40;10.00
9167;DHT22;4618;48.818;9.088;2023-04-22T14:51:53;22.00;17.40
9167;DHT22;4618;48.818;9.088;2023-04-22T14:54:19;22.30;12.40
9167;DHT22;4618;48.818;9.088;2023-04-22T14:56:44;22.40;11.10
9167;DHT22;4618;48.818;9.088;2023-04-22T14:59:10;22.30;11.10
9167;DHT22;4618;48.818;9.088;2023-04-22T15:01:36;22.00;15.60
9167;DHT22;4618;48.818;9.088;2023-04-22T15:04:04;21.60;21.30
9167;DHT22;4618;48.818;9.088;2023-04-22T15:06:32;21.40;24.20
9167;DHT22;4618;48.818;9.088;2023-04-22T15:08:57;21.10;27.80
9167;DHT22;4618;48.818;9.088;2023-04-22T15:11:23;20.90;31.30
9167;DHT22;4618;48.818;9.088;2023-04-22T15:13:48;20.80;31.20
9167;DHT22;4618;48.818;9.088;2023-04-22T15:16:14;20.60;39.30
9167;DHT22;4618;48.818;9.088;2023-04-22T15:18:40;20.70;36.90
9167;DHT22;4618;48.818;9.088;2023-04-22T15:21:05;20.60;36.40
9167;DHT22;4618;48.818;9.088;2023-04-22T15:23:34;20.70;35.40
9167;DHT22;4618;48.818;9.088;2023-04-22T15:26:00;20.70;36.50
9167;DHT22;4618;48.818;9.088;2023-04-22T15:28:25;20.70;36.10
9167;DHT22;4618;48.818;9.088;2023-04-22T15:30:51;20.80;34.50
9167;DHT22;4618;48.818;9.088;2023-04-22T15:33:17;20.70;37.20
9167;DHT22;4618;48.818;9.088;2023-04-22T15:35:42;20.70;36.30
9167;DHT22;4618;48.818;9.088;2023-04-22T15:38:11;20.70;33.80
9167;DHT22;4618;48.818;9.088;2023-04-22T15:40:36;20.80;52.00
9167;DHT22;4618;48.818;9.088;2023-04-22T15:43:02;20.60;36.00
9167;DHT22;4618;48.818;9.088;2023-04-22T15:45:27;20.50;41.70
9167;DHT22;4618;48.818;9.088;2023-04-22T15:47:53;20.50;42.60
9167;DHT22;4618;48.818;9.088;2023-04-22T15:50:19;20.50;42.50
9167;DHT22;4618;48.818;9.088;2023-04-22T15:52:47;20.40;40.80
9167;DHT22;4618;48.818;9.088;2023-04-22T15:55:13;20.30;42.00
9167;DHT22;4618;48.818;9.088;2023-04-22T15:57:38;20.40;42.30
9167;DHT22;4618;48.818;9.088;2023-04-22T16:00:06;20.40;42.90
9167;DHT22;4618;48.818;9.088;2023-04-22T16:02:33;20.40;42.70
9167;DHT22;4618;48.818;9.088;2023-04-22T16:04:59;20.40;42.70
9167;DHT22;4618;48.818;9.088;2023-04-22T16:07:25;20.40;61.10
9167;DHT22;4618;48.818;9.088;2023-04-22T16:09:50;20.40;44.90
9167;DHT22;4618;48.818;9.088;2023-04-22T16:12:16;20.30;44.50
9167;DHT22;4618;48.818;9.088;2023-04-22T16:14:42;20.30;44.90
9167;DHT22;4618;48.818;9.088;2023-04-22T16:17:07;20.40;43.40
9167;DHT22;4618;48.818;9.088;2023-04-22T16:19:33;20.60;38.20
9167;DHT22;4618;48.818;9.088;2023-04-22T16:21:59;20.80;35.20
9167;DHT22;4618;48.818;9.088;2023-04-22T16:24:25;20.80;32.70
9167;DHT22;4618;48.818;9.088;2023-04-22T16:26:50;21.00;28.50